sensor_id;sensor_type;location;lat;lon;timestamp;temperature;humidity
20380;DHT22;10349;48.666;8.948;2022-08-19T00:01:57;19.90;99.90
20380;DHT22;10349;48.666;8.948;2022-08-19T00:04:31;19.80;99.90
20380;DHT22;10349;48.666;8.948;2022-08-19T00:06:58;19.80;99.90
20380;DHT22;10349;48.666;8.948;2022-08-19T00:09:26;19.80;99.90
20380;DHT22;10349;48.666;8.948;2022-08-19T00:11:53;19.80;99.90
20380;DHT22;10349;48.666;8.948;2022-08-19T00:14:20;19.80;99.90
20380;DHT22;10349;48.666;8.948;2022-08-19T00:16:48;19.80;99.90
20380;DHT22;10349;48.666;8.948;2022-08-19T00:19:15;19.80;99.90
20380;DHT22;10349;48.666;8.948;2022-08-19T00:21:41;19.80;99.90
20380;DHT22;10349;48.666;8.948;2022-08-19T00:24:08;19.80;99.90
20380;DHT22;10349;48.666;8.948;2022-08-19T00:26:35;19.80;99.90
20380;DHT22;10349;48.666;8.948;2022-08-19T00:29:02;19.70;99.90
20380;DHT22;10349;48.666;8.948;2022-08-19T00:31:28;19.70;99.90
20380;DHT22;10349;48.666;8.948;2022-08-19T00:33:54;19.70;99.90
20380;DHT22;10349;48.666;8.948;2022-08-19T00:36:20;19.70;99.90
20380;DHT22;10349;48.666;8.948;2022-08-19T00:38:46;19.70;99.90
20380;DHT22;10349;48.666;8.948;2022-08-19T00:41:18;19.70;99.90
20380;DHT22;10349;48.666;8.948;2022-08-19T00:44:04;19.60;99.90
20380;DHT22;10349;48.666;8.948;2022-08-19T00:46:31;19.60;99.90
20380;DHT22;10349;48.666;8.948;2022-08-19T00:48:59;19.60;99.90
20380;DHT22;10349;48.666;8.948;2022-08-19T00:51:29;19.60;99.90
20380;DHT22;10349;48.666;8.948;2022-08-19T00:53:57;19.60;99.90
20380;DHT22;10349;48.666;8.948;2022-08-19T00:56:24;19.60;99.90
20380;DHT22;10349;48.666;8.948;2022-08-19T00:58:54;19.50;99.90
20380;DHT22;10349;48.666;8.948;2022-08-19T01:01:20;19.60;99.90
20380;DHT22;10349;48.666;8.948;2022-08-19T01:03:46;19.60;99.90
20380;DHT22;10349;48.666;8.948;2022-08-19T01:06:13;19.60;99.90
20380;DHT22;10349;48.666;8.948;2022-08-19T01:08:39;19.60;99.90
20380;DHT22;10349;48.666;8.948;2022-08-19T01:11:06;19.60;99.90
20380;DHT22;10349;48.666;8.948;2022-08-19T01:13:36;19.60;99.90
20380;DHT22;10349;48.666;8.948;2022-08-19T01:16:07;19.60;99.90
20380;DHT22;10349;48.666;8.948;2022-08-19T01:18:40;19.60;99.90
20380;DHT22;10349;48.666;8.948;2022-08-19T01:21:15;19.50;99.90
20380;DHT22;10349;48.666;8.948;2022-08-19T01:23:43;19.50;99.90
20380;DHT22;10349;48.666;8.948;2022-08-19T01:26:18;19.50;99.90
20380;DHT22;10349;48.666;8.948;2022-08-19T01:28:47;19.50;99.90
20380;DHT22;10349;48.666;8.948;2022-08-19T01:31:16;19.50;99.90
20380;DHT22;10349;48.666;8.948;2022-08-19T01:33:42;19.50;99.90
20380;DHT22;10349;48.666;8.948;2022-08-19T01:36:12;19.50;99.90
20380;DHT22;10349;48.666;8.948;2022-08-19T01:38:40;19.50;99.90
20380;DHT22;10349;48.666;8.948;2022-08-19T01:41:08;19.40;99.90
20380;DHT22;10349;48.666;8.948;2022-08-19T01:43:34;19.40;99.90
20380;DHT22;10349;48.666;8.948;2022-08-19T01:46:00;19.30;99.90
20380;DHT22;10349;48.666;8.948;2022-08-19T01:48:27;19.30;99.90
20380;DHT22;10349;48.666;8.948;2022-08-19T01:50:54;19.30;99.90
20380;DHT22;10349;48.666;8.948;2022-08-19T01:53:21;19.30;99.90
20380;DHT22;10349;48.666;8.948;2022-08-19T01:55:46;19.20;99.90
20380;DHT22;10349;48.666;8.948;2022-08-19T01:58:19;19.20;99.90
20380;DHT22;10349;48.666;8.948;2022-08-19T02:00:46;19.20;99.90
20380;DHT22;10349;48.666;8.948;2022-08-19T02:03:12;19.10;99.90
20380;DHT22;10349;48.666;8.948;2022-08-19T02:05:39;19.10;99.90
20380;DHT22;10349;48.666;8.948;2022-08-19T02:08:05;19.10;99.90
20380;DHT22;10349;48.666;8.948;2022-08-19T02:10:31;19.10;99.90
20380;DHT22;10349;48.666;8.948;2022-08-19T02:12:57;19.00;99.90
20380;DHT22;10349;48.666;8.948;2022-08-19T02:15:23;19.00;99.90
20380;DHT22;10349;48.666;8.948;2022-08-19T02:17:50;19.00;99.90
20380;DHT22;10349;48.666;8.948;2022-08-19T02:20:16;18.90;99.90
20380;DHT22;10349;48.666;8.948;2022-08-19T02:22:42;18.90;99.90
20380;DHT22;10349;48.666;8.948;2022-08-19T02:25:10;18.80;99.90
20380;DHT22;10349;48.666;8.948;2022-08-19T02:27:36;18.80;99.90
20380;DHT22;10349;48.666;8.948;2022-08-19T02:30:04;18.80;99.90
20380;DHT22;10349;48.666;8.948;2022-08-19T02:32:30;18.80;99.90
20380;DHT22;10349;48.666;8.948;2022-08-19T02:34:56;18.70;99.90
20380;DHT22;10349;48.666;8.948;2022-08-19T02:37:22;18.70;99.90
20380;DHT22;10349;48.666;8.948;2022-08-19T02:40:06;18.80;99.90
20380;DHT22;10349;48.666;8.948;2022-08-19T02:42:32;18.80;99.90
20380;DHT22;10349;48.666;8.948;2022-08-19T02:44:58;18.80;99.90
20380;DHT22;10349;48.666;8.948;2022-08-19T02:47:23;18.80;99.90
20380;DHT22;10349;48.666;8.948;2022-08-19T02:49:49;18.80;99.90
20380;DHT22;10349;48.666;8.948;2022-08-19T02:52:15;18.80;99.90
20380;DHT22;10349;48.666;8.948;2022-08-19T02:54:41;18.80;99.90
20380;DHT22;10349;48.666;8.948;2022-08-19T02:57:07;18.80;99.90
20380;DHT22;10349;48.666;8.948;2022-08-19T02:59:33;18.80;99.90
20380;DHT22;10349;48.666;8.948;2022-08-19T03:01:59;18.70;99.90
20380;DHT22;10349;48.666;8.948;2022-08-19T03:04:25;18.70;99.90
20380;DHT22;10349;48.666;8.948;2022-08-19T03:06:51;18.70;99.90
20380;DHT22;10349;48.666;8.948;2022-08-19T03:09:18;18.70;99.90
20380;DHT22;10349;48.666;8.948;2022-08-19T03:11:44;18.70;99.90
20380;DHT22;10349;48.666;8.948;2022-08-19T03:14:11;18.70;99.90
20380;DHT22;10349;48.666;8.948;2022-08-19T03:16:46;18.70;99.90
20380;DHT22;10349;48.666;8.948;2022-08-19T03:19:12;18.70;99.90
20380;DHT22;10349;48.666;8.948;2022-08-19T03:21:38;18.70;99.90
20380;DHT22;10349;48.666;8.948;2022-08-19T03:24:07;18.70;99.90
20380;DHT22;10349;48.666;8.948;2022-08-19T03:26:34;18.70;99.90
20380;DHT22;10349;48.666;8.948;2022-08-19T03:29:04;18.70;99.90
20380;DHT22;10349;48.666;8.948;2022-08-19T03:31:29;18.60;99.90
20380;DHT22;10349;48.666;8.948;2022-08-19T03:33:56;18.60;99.90
20380;DHT22;10349;48.666;8.948;2022-08-19T03:36:24;18.60;99.90
20380;DHT22;10349;48.666;8.948;2022-08-19T03:38:59;18.50;99.90
20380;DHT22;10349;48.666;8.948;2022-08-19T03:41:30;18.60;99.90
20380;DHT22;10349;48.666;8.948;2022-08-19T03:43:57;18.60;99.90
20380;DHT22;10349;48.666;8.948;2022-08-19T03:46:26;18.50;99.90
20380;DHT22;10349;48.666;8.948;2022-08-19T03:48:54;18.50;99.90
20380;DHT22;10349;48.666;8.948;2022-08-19T03:51:24;18.50;99.90
20380;DHT22;10349;48.666;8.948;2022-08-19T03:53:51;18.50;99.90
20380;DHT22;10349;48.666;8.948;2022-08-19T03:56:16;18.50;99.90
20380;DHT22;10349;48.666;8.948;2022-08-19T03:58:42;18.40;99.90
20380;DHT22;10349;48.666;8.948;2022-08-19T04:01:14;18.50;99.90
20380;DHT22;10349;48.666;8.948;2022-08-19T04:03:41;18.40;99.90
20380;DHT22;10349;48.666;8.948;2022-08-19T04:08:45;18.40;99.90
20380;DHT22;10349;48.666;8.948;2022-08-19T04:11:13;18.40;99.90
20380;DHT22;10349;48.666;8.948;2022-08-19T04:13:40;18.40;99.90
20380;DHT22;10349;48.666;8.948;2022-08-19T04:16:06;18.40;99.90
20380;DHT22;10349;48.666;8.948;2022-08-19T04:18:36;18.40;99.90
20380;DHT22;10349;48.666;8.948;2022-08-19T04:21:02;18.50;99.90
20380;DHT22;10349;48.666;8.948;2022-08-19T04:23:28;18.40;99.90
20380;DHT22;10349;48.666;8.948;2022-08-19T04:25:54;18.40;99.90
20380;DHT22;10349;48.666;8.948;2022-08-19T04:28:21;18.40;99.90
20380;DHT22;10349;48.666;8.948;2022-08-19T04:30:49;18.40;99.90
20380;DHT22;10349;48.666;8.948;2022-08-19T04:33:21;18.40;99.90
20380;DHT22;10349;48.666;8.948;2022-08-19T04:35:49;18.40;99.90
20380;DHT22;10349;48.666;8.948;2022-08-19T04:38:16;18.40;99.90
20380;DHT22;10349;48.666;8.948;2022-08-19T04:40:45;18.30;99.90
20380;DHT22;10349;48.666;8.948;2022-08-19T04:43:31;18.30;99.90
20380;DHT22;10349;48.666;8.948;2022-08-19T04:45:58;18.40;99.90
20380;DHT22;10349;48.666;8.948;2022-08-19T04:48:24;18.30;99.90
20380;DHT22;10349;48.666;8.948;2022-08-19T04:50:56;18.30;99.90
20380;DHT22;10349;48.666;8.948;2022-08-19T04:53:30;18.30;99.90
20380;DHT22;10349;48.666;8.948;2022-08-19T04:55:58;18.30;99.90
20380;DHT22;10349;48.666;8.948;2022-08-19T04:58:25;18.40;99.90
20380;DHT22;10349;48.666;8.948;2022-08-19T05:00:51;18.40;99.90
20380;DHT22;10349;48.666;8.948;2022-08-19T05:03:17;18.30;99.90
20380;DHT22;10349;48.666;8.948;2022-08-19T05:05:44;18.40;99.90
20380;DHT22;10349;48.666;8.948;2022-08-19T05:08:12;18.40;99.90
20380;DHT22;10349;48.666;8.948;2022-08-19T05:10:39;18.40;99.90
20380;DHT22;10349;48.666;8.948;2022-08-19T05:13:04;18.40;99.90
20380;DHT22;10349;48.666;8.948;2022-08-19T05:15:31;18.30;99.90
20380;DHT22;10349;48.666;8.948;2022-08-19T05:17:57;18.30;99.90
20380;DHT22;10349;48.666;8.948;2022-08-19T05:20:41;18.40;99.90
20380;DHT22;10349;48.666;8.948;2022-08-19T05:23:25;18.40;99.90
20380;DHT22;10349;48.666;8.948;2022-08-19T05:25:51;18.40;99.90
20380;DHT22;10349;48.666;8.948;2022-08-19T05:28:18;18.40;99.90
20380;DHT22;10349;48.666;8.948;2022-08-19T05:30:44;18.50;99.90
20380;DHT22;10349;48.666;8.948;2022-08-19T05:33:11;18.50;99.90
20380;DHT22;10349;48.666;8.948;2022-08-19T05:35:40;18.50;99.90
20380;DHT22;10349;48.666;8.948;2022-08-19T05:38:07;18.50;99.90
20380;DHT22;10349;48.666;8.948;2022-08-19T05:40:37;18.50;99.90
20380;DHT22;10349;48.666;8.948;2022-08-19T05:43:05;18.50;99.90
20380;DHT22;10349;48.666;8.948;2022-08-19T05:45:32;18.50;99.90
20380;DHT22;10349;48.666;8.948;2022-08-19T05:47:58;18.60;99.90
20380;DHT22;10349;48.666;8.948;2022-08-19T05:50:24;18.50;99.90
20380;DHT22;10349;48.666;8.948;2022-08-19T05:52:53;18.60;99.90
20380;DHT22;10349;48.666;8.948;2022-08-19T05:55:19;18.60;99.90
20380;DHT22;10349;48.666;8.948;2022-08-19T05:57:47;18.50;99.90
20380;DHT22;10349;48.666;8.948;2022-08-19T06:00:13;18.50;99.90
20380;DHT22;10349;48.666;8.948;2022-08-19T06:02:39;18.60;99.90
20380;DHT22;10349;48.666;8.948;2022-08-19T06:05:07;18.50;99.90
20380;DHT22;10349;48.666;8.948;2022-08-19T06:07:37;18.60;99.90
20380;DHT22;10349;48.666;8.948;2022-08-19T06:10:09;18.60;99.90
20380;DHT22;10349;48.666;8.948;2022-08-19T06:12:36;18.60;99.90
20380;DHT22;10349;48.666;8.948;2022-08-19T06:15:08;18.60;99.90
20380;DHT22;10349;48.666;8.948;2022-08-19T06:17:34;18.60;99.90
20380;DHT22;10349;48.666;8.948;2022-08-19T06:20:01;18.70;99.90
20380;DHT22;10349;48.666;8.948;2022-08-19T06:22:27;18.70;99.90
20380;DHT22;10349;48.666;8.948;2022-08-19T06:24:54;18.70;99.90
20380;DHT22;10349;48.666;8.948;2022-08-19T06:27:20;18.70;99.90
20380;DHT22;10349;48.666;8.948;2022-08-19T06:29:46;18.80;99.90
20380;DHT22;10349;48.666;8.948;2022-08-19T06:32:13;18.80;99.90
20380;DHT22;10349;48.666;8.948;2022-08-19T06:34:40;18.80;99.90
20380;DHT22;10349;48.666;8.948;2022-08-19T06:37:07;18.80;99.90
20380;DHT22;10349;48.666;8.948;2022-08-19T06:39:36;18.90;99.90
20380;DHT22;10349;48.666;8.948;2022-08-19T06:42:04;18.90;99.90
20380;DHT22;10349;48.666;8.948;2022-08-19T06:44:35;18.90;99.90
20380;DHT22;10349;48.666;8.948;2022-08-19T06:47:08;18.90;99.90
20380;DHT22;10349;48.666;8.948;2022-08-19T06:49:34;19.00;99.90
20380;DHT22;10349;48.666;8.948;2022-08-19T06:52:00;19.00;99.90
20380;DHT22;10349;48.666;8.948;2022-08-19T06:54:27;19.10;99.90
20380;DHT22;10349;48.666;8.948;2022-08-19T06:56:55;19.10;99.90
20380;DHT22;10349;48.666;8.948;2022-08-19T06:59:23;19.10;99.90
20380;DHT22;10349;48.666;8.948;2022-08-19T07:01:54;19.10;99.90
20380;DHT22;10349;48.666;8.948;2022-08-19T07:04:23;19.20;99.90
20380;DHT22;10349;48.666;8.948;2022-08-19T07:06:50;19.30;99.90
20380;DHT22;10349;48.666;8.948;2022-08-19T07:09:17;19.30;99.90
20380;DHT22;10349;48.666;8.948;2022-08-19T07:11:48;19.20;99.90
20380;DHT22;10349;48.666;8.948;2022-08-19T07:14:16;19.30;99.90
20380;DHT22;10349;48.666;8.948;2022-08-19T07:16:44;19.30;99.90
20380;DHT22;10349;48.666;8.948;2022-08-19T07:19:11;19.30;99.90
20380;DHT22;10349;48.666;8.948;2022-08-19T07:21:37;19.30;99.90
20380;DHT22;10349;48.666;8.948;2022-08-19T07:24:04;19.30;99.90
20380;DHT22;10349;48.666;8.948;2022-08-19T07:26:32;19.30;99.90
20380;DHT22;10349;48.666;8.948;2022-08-19T07:28:58;19.30;99.90
20380;DHT22;10349;48.666;8.948;2022-08-19T07:31:27;19.30;99.90
20380;DHT22;10349;48.666;8.948;2022-08-19T07:33:54;19.40;99.90
20380;DHT22;10349;48.666;8.948;2022-08-19T07:36:26;19.50;99.90
20380;DHT22;10349;48.666;8.948;2022-08-19T07:38:55;19.60;99.90
20380;DHT22;10349;48.666;8.948;2022-08-19T07:41:23;19.60;99.90
20380;DHT22;10349;48.666;8.948;2022-08-19T07:43:50;19.60;99.90
20380;DHT22;10349;48.666;8.948;2022-08-19T07:46:17;19.60;99.90
20380;DHT22;10349;48.666;8.948;2022-08-19T07:48:44;19.60;99.90
20380;DHT22;10349;48.666;8.948;2022-08-19T07:51:16;19.60;99.90
20380;DHT22;10349;48.666;8.948;2022-08-19T07:53:42;19.60;99.90
20380;DHT22;10349;48.666;8.948;2022-08-19T07:56:11;19.60;99.90
20380;DHT22;10349;48.666;8.948;2022-08-19T07:58:39;19.50;99.90
20380;DHT22;10349;48.666;8.948;2022-08-19T08:01:07;19.50;99.90
20380;DHT22;10349;48.666;8.948;2022-08-19T08:03:33;19.50;99.90
20380;DHT22;10349;48.666;8.948;2022-08-19T08:06:18;19.60;99.90
20380;DHT22;10349;48.666;8.948;2022-08-19T08:09:04;19.60;99.90
20380;DHT22;10349;48.666;8.948;2022-08-19T08:11:38;19.70;99.90
20380;DHT22;10349;48.666;8.948;2022-08-19T08:14:03;19.70;99.90
20380;DHT22;10349;48.666;8.948;2022-08-19T08:16:37;19.70;99.90
20380;DHT22;10349;48.666;8.948;2022-08-19T08:19:06;19.70;99.90
20380;DHT22;10349;48.666;8.948;2022-08-19T08:21:33;19.70;99.90
20380;DHT22;10349;48.666;8.948;2022-08-19T08:23:59;19.60;99.90
20380;DHT22;10349;48.666;8.948;2022-08-19T08:26:25;19.70;99.90
20380;DHT22;10349;48.666;8.948;2022-08-19T08:28:54;19.70;99.90
20380;DHT22;10349;48.666;8.948;2022-08-19T08:31:20;19.80;99.90
20380;DHT22;10349;48.666;8.948;2022-08-19T08:33:46;19.80;99.90
20380;DHT22;10349;48.666;8.948;2022-08-19T08:36:13;19.70;99.90
20380;DHT22;10349;48.666;8.948;2022-08-19T08:38:41;19.70;99.90
20380;DHT22;10349;48.666;8.948;2022-08-19T08:41:37;19.80;99.90
20380;DHT22;10349;48.666;8.948;2022-08-19T08:44:06;19.70;99.90
20380;DHT22;10349;48.666;8.948;2022-08-19T08:46:44;19.70;99.90
20380;DHT22;10349;48.666;8.948;2022-08-19T08:49:33;19.60;99.90
20380;DHT22;10349;48.666;8.948;2022-08-19T08:52:06;19.60;99.90
20380;DHT22;10349;48.666;8.948;2022-08-19T08:54:39;19.60;99.90
20380;DHT22;10349;48.666;8.948;2022-08-19T08:57:12;19.50;99.90
20380;DHT22;10349;48.666;8.948;2022-08-19T08:59:40;19.50;99.90
20380;DHT22;10349;48.666;8.948;2022-08-19T09:02:08;19.60;99.90
20380;DHT22;10349;48.666;8.948;2022-08-19T09:04:37;19.60;99.90
20380;DHT22;10349;48.666;8.948;2022-08-19T09:07:17;19.70;99.90
20380;DHT22;10349;48.666;8.948;2022-08-19T09:09:50;19.70;99.90
20380;DHT22;10349;48.666;8.948;2022-08-19T09:15:00;19.70;99.90
20380;DHT22;10349;48.666;8.948;2022-08-19T09:17:29;19.70;99.90
20380;DHT22;10349;48.666;8.948;2022-08-19T09:22:39;19.80;99.90
20380;DHT22;10349;48.666;8.948;2022-08-19T09:25:08;19.90;99.90
20380;DHT22;10349;48.666;8.948;2022-08-19T09:27:36;19.90;99.90
20380;DHT22;10349;48.666;8.948;2022-08-19T09:30:05;20.10;99.90
20380;DHT22;10349;48.666;8.948;2022-08-19T09:32:31;20.00;99.90
20380;DHT22;10349;48.666;8.948;2022-08-19T09:34:57;20.10;99.90
20380;DHT22;10349;48.666;8.948;2022-08-19T09:37:24;20.20;99.90
20380;DHT22;10349;48.666;8.948;2022-08-19T09:39:50;20.20;99.90
20380;DHT22;10349;48.666;8.948;2022-08-19T09:42:16;20.30;99.90
20380;DHT22;10349;48.666;8.948;2022-08-19T09:44:43;20.30;99.90
20380;DHT22;10349;48.666;8.948;2022-08-19T09:47:11;20.30;99.90
20380;DHT22;10349;48.666;8.948;2022-08-19T09:49:37;20.40;99.90
20380;DHT22;10349;48.666;8.948;2022-08-19T09:52:04;20.40;99.90
20380;DHT22;10349;48.666;8.948;2022-08-19T09:54:30;20.40;99.90
20380;DHT22;10349;48.666;8.948;2022-08-19T09:56:58;20.30;99.90
20380;DHT22;10349;48.666;8.948;2022-08-19T09:59:26;20.30;99.90
20380;DHT22;10349;48.666;8.948;2022-08-19T10:01:52;20.30;99.90
20380;DHT22;10349;48.666;8.948;2022-08-19T10:04:18;20.40;99.90
20380;DHT22;10349;48.666;8.948;2022-08-19T10:06:47;20.40;99.90
20380;DHT22;10349;48.666;8.948;2022-08-19T10:09:15;20.40;99.90
20380;DHT22;10349;48.666;8.948;2022-08-19T10:11:44;20.40;99.90
20380;DHT22;10349;48.666;8.948;2022-08-19T10:14:13;20.50;99.90
20380;DHT22;10349;48.666;8.948;2022-08-19T10:16:39;20.60;99.90
20380;DHT22;10349;48.666;8.948;2022-08-19T10:19:06;20.60;99.90
20380;DHT22;10349;48.666;8.948;2022-08-19T10:21:33;20.70;99.90
20380;DHT22;10349;48.666;8.948;2022-08-19T10:24:03;20.80;99.90
20380;DHT22;10349;48.666;8.948;2022-08-19T10:26:39;20.80;99.90
20380;DHT22;10349;48.666;8.948;2022-08-19T10:29:10;20.90;99.90
20380;DHT22;10349;48.666;8.948;2022-08-19T10:31:37;20.90;99.90
20380;DHT22;10349;48.666;8.948;2022-08-19T10:34:03;20.90;99.90
20380;DHT22;10349;48.666;8.948;2022-08-19T10:36:32;21.00;99.90
20380;DHT22;10349;48.666;8.948;2022-08-19T10:38:59;21.00;99.90
20380;DHT22;10349;48.666;8.948;2022-08-19T10:41:30;21.00;99.90
20380;DHT22;10349;48.666;8.948;2022-08-19T10:44:03;21.10;99.90
20380;DHT22;10349;48.666;8.948;2022-08-19T10:46:29;21.10;99.90
20380;DHT22;10349;48.666;8.948;2022-08-19T10:49:01;21.10;99.90
20380;DHT22;10349;48.666;8.948;2022-08-19T10:51:28;21.10;99.90
20380;DHT22;10349;48.666;8.948;2022-08-19T10:54:12;21.10;99.90
20380;DHT22;10349;48.666;8.948;2022-08-19T10:56:38;21.10;99.90
20380;DHT22;10349;48.666;8.948;2022-08-19T10:59:25;21.20;99.90
20380;DHT22;10349;48.666;8.948;2022-08-19T11:01:54;21.20;99.90
20380;DHT22;10349;48.666;8.948;2022-08-19T11:04:20;21.20;99.90
20380;DHT22;10349;48.666;8.948;2022-08-19T11:06:48;21.20;99.90
20380;DHT22;10349;48.666;8.948;2022-08-19T11:09:20;21.30;99.90
20380;DHT22;10349;48.666;8.948;2022-08-19T11:11:46;21.40;99.90
20380;DHT22;10349;48.666;8.948;2022-08-19T11:14:15;21.50;99.90
20380;DHT22;10349;48.666;8.948;2022-08-19T11:16:42;21.60;99.90
20380;DHT22;10349;48.666;8.948;2022-08-19T11:19:09;21.60;99.90
20380;DHT22;10349;48.666;8.948;2022-08-19T11:21:40;21.60;99.90
20380;DHT22;10349;48.666;8.948;2022-08-19T11:24:10;21.70;99.90
20380;DHT22;10349;48.666;8.948;2022-08-19T11:26:38;21.80;99.90
20380;DHT22;10349;48.666;8.948;2022-08-19T11:29:05;21.90;99.90
20380;DHT22;10349;48.666;8.948;2022-08-19T11:31:35;22.00;99.90
20380;DHT22;10349;48.666;8.948;2022-08-19T11:34:06;21.90;99.90
20380;DHT22;10349;48.666;8.948;2022-08-19T11:36:33;21.90;99.90
20380;DHT22;10349;48.666;8.948;2022-08-19T11:39:00;21.90;99.90
20380;DHT22;10349;48.666;8.948;2022-08-19T11:41:26;21.80;99.90
20380;DHT22;10349;48.666;8.948;2022-08-19T11:43:53;21.80;99.90
20380;DHT22;10349;48.666;8.948;2022-08-19T11:46:22;21.80;99.90
20380;DHT22;10349;48.666;8.948;2022-08-19T11:48:48;21.70;99.90
20380;DHT22;10349;48.666;8.948;2022-08-19T11:51:17;21.70;99.90
20380;DHT22;10349;48.666;8.948;2022-08-19T11:53:44;21.80;99.90
20380;DHT22;10349;48.666;8.948;2022-08-19T11:56:11;21.70;99.90
20380;DHT22;10349;48.666;8.948;2022-08-19T11:58:37;21.80;99.90
20380;DHT22;10349;48.666;8.948;2022-08-19T12:01:08;21.80;99.90
20380;DHT22;10349;48.666;8.948;2022-08-19T12:03:34;21.90;99.90
20380;DHT22;10349;48.666;8.948;2022-08-19T12:06:07;22.00;99.90
20380;DHT22;10349;48.666;8.948;2022-08-19T12:08:34;22.10;99.90
20380;DHT22;10349;48.666;8.948;2022-08-19T12:10:59;22.10;99.90
20380;DHT22;10349;48.666;8.948;2022-08-19T12:13:28;22.20;99.90
20380;DHT22;10349;48.666;8.948;2022-08-19T12:15:53;22.20;99.90
20380;DHT22;10349;48.666;8.948;2022-08-19T12:18:19;22.20;99.90
20380;DHT22;10349;48.666;8.948;2022-08-19T12:20:45;22.20;99.90
20380;DHT22;10349;48.666;8.948;2022-08-19T12:23:11;22.30;99.90
20380;DHT22;10349;48.666;8.948;2022-08-19T12:25:44;22.40;99.90
20380;DHT22;10349;48.666;8.948;2022-08-19T12:28:25;22.50;99.90
20380;DHT22;10349;48.666;8.948;2022-08-19T12:30:51;22.60;99.90
20380;DHT22;10349;48.666;8.948;2022-08-19T12:33:18;22.70;99.90
20380;DHT22;10349;48.666;8.948;2022-08-19T12:35:45;22.80;99.90
20380;DHT22;10349;48.666;8.948;2022-08-19T12:38:12;23.00;99.90
20380;DHT22;10349;48.666;8.948;2022-08-19T12:40:38;23.20;99.90
20380;DHT22;10349;48.666;8.948;2022-08-19T12:43:07;23.30;99.90
20380;DHT22;10349;48.666;8.948;2022-08-19T12:45:33;23.40;99.90
20380;DHT22;10349;48.666;8.948;2022-08-19T12:47:59;23.50;99.90
20380;DHT22;10349;48.666;8.948;2022-08-19T12:50:25;23.50;99.90
20380;DHT22;10349;48.666;8.948;2022-08-19T12:52:50;23.60;99.90
20380;DHT22;10349;48.666;8.948;2022-08-19T12:55:16;23.60;99.90
20380;DHT22;10349;48.666;8.948;2022-08-19T12:57:44;23.60;99.90
20380;DHT22;10349;48.666;8.948;2022-08-19T13:00:12;23.70;99.90
20380;DHT22;10349;48.666;8.948;2022-08-19T13:02:41;23.80;99.90
20380;DHT22;10349;48.666;8.948;2022-08-19T13:05:09;23.80;99.90
20380;DHT22;10349;48.666;8.948;2022-08-19T13:07:37;24.00;99.90
20380;DHT22;10349;48.666;8.948;2022-08-19T13:10:05;24.00;99.90
20380;DHT22;10349;48.666;8.948;2022-08-19T13:12:31;24.00;99.90
20380;DHT22;10349;48.666;8.948;2022-08-19T13:14:56;24.10;99.90
20380;DHT22;10349;48.666;8.948;2022-08-19T13:17:22;24.10;99.90
20380;DHT22;10349;48.666;8.948;2022-08-19T13:19:48;24.10;99.90
20380;DHT22;10349;48.666;8.948;2022-08-19T13:22:14;24.10;99.90
20380;DHT22;10349;48.666;8.948;2022-08-19T13:24:40;24.10;99.90
20380;DHT22;10349;48.666;8.948;2022-08-19T13:27:05;24.20;99.90
20380;DHT22;10349;48.666;8.948;2022-08-19T13:29:32;24.30;99.90
20380;DHT22;10349;48.666;8.948;2022-08-19T13:32:16;24.40;99.90
20380;DHT22;10349;48.666;8.948;2022-08-19T13:35:02;24.40;99.90
20380;DHT22;10349;48.666;8.948;2022-08-19T13:37:28;24.40;99.90
20380;DHT22;10349;48.666;8.948;2022-08-19T13:40:13;24.40;99.90
20380;DHT22;10349;48.666;8.948;2022-08-19T13:42:41;24.40;99.90
20380;DHT22;10349;48.666;8.948;2022-08-19T13:45:07;24.30;99.90
20380;DHT22;10349;48.666;8.948;2022-08-19T13:47:34;24.30;99.90
20380;DHT22;10349;48.666;8.948;2022-08-19T13:50:03;24.40;99.90
20380;DHT22;10349;48.666;8.948;2022-08-19T13:52:29;24.50;99.90
20380;DHT22;10349;48.666;8.948;2022-08-19T13:54:54;24.50;99.90
20380;DHT22;10349;48.666;8.948;2022-08-19T13:57:22;24.60;99.90
20380;DHT22;10349;48.666;8.948;2022-08-19T13:59:48;24.60;99.90
20380;DHT22;10349;48.666;8.948;2022-08-19T14:02:13;24.60;99.90
20380;DHT22;10349;48.666;8.948;2022-08-19T14:04:40;24.60;99.90
20380;DHT22;10349;48.666;8.948;2022-08-19T14:07:05;24.60;99.90
20380;DHT22;10349;48.666;8.948;2022-08-19T14:09:31;24.50;99.90
20380;DHT22;10349;48.666;8.948;2022-08-19T14:11:57;24.50;99.90
20380;DHT22;10349;48.666;8.948;2022-08-19T14:14:22;24.50;99.90
20380;DHT22;10349;48.666;8.948;2022-08-19T14:16:48;24.70;99.90
20380;DHT22;10349;48.666;8.948;2022-08-19T14:19:14;24.70;99.90
20380;DHT22;10349;48.666;8.948;2022-08-19T14:21:40;24.60;99.90
20380;DHT22;10349;48.666;8.948;2022-08-19T14:24:07;24.60;99.90
20380;DHT22;10349;48.666;8.948;2022-08-19T14:26:34;24.60;99.90
20380;DHT22;10349;48.666;8.948;2022-08-19T14:28:59;24.70;99.90
20380;DHT22;10349;48.666;8.948;2022-08-19T14:31:26;24.60;99.90
20380;DHT22;10349;48.666;8.948;2022-08-19T14:33:52;24.50;99.90
20380;DHT22;10349;48.666;8.948;2022-08-19T14:36:19;24.50;99.90
20380;DHT22;10349;48.666;8.948;2022-08-19T14:38:45;24.40;99.90
20380;DHT22;10349;48.666;8.948;2022-08-19T14:41:15;24.30;99.90
20380;DHT22;10349;48.666;8.948;2022-08-19T14:43:43;24.30;99.90
20380;DHT22;10349;48.666;8.948;2022-08-19T14:46:16;24.30;99.90
20380;DHT22;10349;48.666;8.948;2022-08-19T14:48:42;24.20;99.90
20380;DHT22;10349;48.666;8.948;2022-08-19T14:51:09;24.20;99.90
20380;DHT22;10349;48.666;8.948;2022-08-19T14:53:35;24.20;99.90
20380;DHT22;10349;48.666;8.948;2022-08-19T14:56:01;24.10;99.90
20380;DHT22;10349;48.666;8.948;2022-08-19T14:58:27;24.20;99.90
20380;DHT22;10349;48.666;8.948;2022-08-19T15:00:53;24.30;99.90
20380;DHT22;10349;48.666;8.948;2022-08-19T15:03:19;24.30;99.90
20380;DHT22;10349;48.666;8.948;2022-08-19T15:05:45;24.20;99.90
20380;DHT22;10349;48.666;8.948;2022-08-19T15:08:10;24.10;99.90
20380;DHT22;10349;48.666;8.948;2022-08-19T15:10:38;24.00;99.90
20380;DHT22;10349;48.666;8.948;2022-08-19T15:13:04;24.00;99.90
20380;DHT22;10349;48.666;8.948;2022-08-19T15:15:31;23.90;99.90
20380;DHT22;10349;48.666;8.948;2022-08-19T15:17:56;23.90;99.90
20380;DHT22;10349;48.666;8.948;2022-08-19T15:20:28;23.90;99.90
20380;DHT22;10349;48.666;8.948;2022-08-19T15:22:54;23.90;99.90
20380;DHT22;10349;48.666;8.948;2022-08-19T15:25:20;24.00;99.90
20380;DHT22;10349;48.666;8.948;2022-08-19T15:27:47;24.10;99.90
20380;DHT22;10349;48.666;8.948;2022-08-19T15:30:22;24.10;99.90
20380;DHT22;10349;48.666;8.948;2022-08-19T15:32:49;24.10;99.90
20380;DHT22;10349;48.666;8.948;2022-08-19T15:35:14;24.30;99.90
20380;DHT22;10349;48.666;8.948;2022-08-19T15:37:40;24.30;99.90
20380;DHT22;10349;48.666;8.948;2022-08-19T15:40:06;24.40;99.90
20380;DHT22;10349;48.666;8.948;2022-08-19T15:42:37;24.50;99.90
20380;DHT22;10349;48.666;8.948;2022-08-19T15:45:06;24.70;99.90